LIRP/PSA METAR and TAF weather

Enter ICAO airport designator
Station Type Date Time Source
LIRP METAR 2020/01/24 21:15 UTC NOAA

LIRP 242115Z 07006KT 9999 -RA SCT030 BKN040 11/10 Q1023 NOSIG


Station Type Date Time Source
LIRP Decoded METAR 2020/01/24 21:15 UTC NOAA

Pisa / S. Giusto, Italy (LIRP) 43-41N 010-23E 6M
Jan 24, 2020 - 04:15 PM EST / 2020.01.24 2115 UTC
Wind: from the ENE (070 degrees) at 7 MPH (6 KT):0
Visibility: greater than 7 mile(s):0
Sky conditions: mostly cloudy
Weather: light rain
Temperature: 51 F (11 C)
Dew Point: 50 F (10 C)
Relative Humidity: 93%
Pressure (altimeter): 30.21 in. Hg (1023 hPa)
ob: LIRP 242115Z 07006KT 9999 -RA SCT030 BKN040 11/10 Q1023 NOSIG
cycle: 21

Station Type Date Time Source
LIRP TAF 2020/01/24 18:21 UTC NOAA

TAF LIRP 241700Z 2418/2518 10006KT 9999 SCT020 BKN040
TEMPO 2418/2512 4000 RA BR PROB30
TEMPO 2421/2506 10015G25KT 3000 SHRA BR FEW020CB BKN030

Example: see airport list